Time;durP1;ratioP1;P1;durP2;ratioP2;P2;SDS_P1;SDS_P2;PMS_P1;PMS_P2;Temp;Humidity;BMP_temperature;BMP_pressure;BME280_temperature;BME280_humidity;BME280_pressure;Samples;Min_cycle;Max_cycle;Signal;HPM_P1;HPM_P2
2022/12/26 00:00:36;;;;;;;4.72;2.35;;;;;;;;;;4999169;28;20033;-72
2022/12/26 00:03:02;;;;;;;4.30;2.90;;;;;;;;;;4999255;28;20061;-72
2022/12/26 00:05:27;;;;;;;3.90;2.85;;;;;;;;;;4999210;28;20062;-72
2022/12/26 00:07:53;;;;;;;2.80;2.60;;;;;;;;;;4999625;28;20072;-72
2022/12/26 00:10:20;;;;;;;4.03;2.90;;;;;;;;;;4999394;28;20022;-72
2022/12/26 00:12:46;;;;;;;4.35;3.05;;;;;;;;;;4999526;28;20058;-72
2022/12/26 00:15:12;;;;;;;2.80;2.42;;;;;;;;;;4999542;28;20034;-72
2022/12/26 00:17:38;;;;;;;4.45;2.70;;;;;;;;;;4999330;28;20624;-72
2022/12/26 00:20:04;;;;;;;4.93;3.03;;;;;;;;;;4999112;28;20037;-72
2022/12/26 00:22:30;;;;;;;5.55;2.70;;;;;;;;;;4999056;28;20036;-72
2022/12/26 00:24:56;;;;;;;3.40;2.92;;;;;;;;;;4999032;28;20109;-72
2022/12/26 00:27:22;;;;;;;3.42;2.70;;;;;;;;;;4998910;28;20042;-72
2022/12/26 00:29:48;;;;;;;3.40;2.70;;;;;;;;;;4998937;28;20109;-72
2022/12/26 00:32:14;;;;;;;4.57;3.53;;;;;;;;;;4998988;28;20034;-72
2022/12/26 00:34:40;;;;;;;4.78;3.10;;;;;;;;;;4999028;28;20053;-72
2022/12/26 00:37:06;;;;;;;3.25;2.95;;;;;;;;;;4998877;28;20052;-72
2022/12/26 00:39:32;;;;;;;4.60;3.63;;;;;;;;;;4998777;28;20023;-73
2022/12/26 00:41:58;;;;;;;4.22;3.30;;;;;;;;;;4998784;28;20033;-72
2022/12/26 00:44:24;;;;;;;5.90;3.70;;;;;;;;;;4999048;28;20076;-72
2022/12/26 00:46:50;;;;;;;4.82;3.17;;;;;;;;;;4998785;28;20101;-72
2022/12/26 00:49:16;;;;;;;6.57;3.38;;;;;;;;;;4998853;28;20034;-72
2022/12/26 00:51:42;;;;;;;3.65;3.28;;;;;;;;;;4998758;28;20033;-72
2022/12/26 00:54:07;;;;;;;4.00;3.53;;;;;;;;;;4994520;28;20065;-72
2022/12/26 00:56:33;;;;;;;4.28;3.33;;;;;;;;;;4995481;28;20045;-72
2022/12/26 00:58:59;;;;;;;3.38;2.83;;;;;;;;;;4995633;28;20065;-73
2022/12/26 01:01:29;;;;;;;3.97;3.15;;;;;;;;;;4995627;28;20050;-72
2022/12/26 01:03:56;;;;;;;4.28;3.25;;;16.40;81.70;;;;;;4995552;28;20024;-72
2022/12/26 01:06:22;;;;;;;3.78;2.92;;;;;;;;;;4995572;28;20417;-72
2022/12/26 01:08:48;;;;;;;3.83;2.97;;;;;;;;;;4995394;28;20033;-72
2022/12/26 01:11:38;;;;;;;3.30;2.88;;;16.40;82.40;;;;;;4995409;28;20045;-72
2022/12/26 01:14:01;;;;;;;3.88;3.13;;;;;;;;;;4995224;28;20461;-72
2022/12/26 01:16:27;;;;;;;3.72;2.55;;;;;;;;;;4995146;28;20121;-72
2022/12/26 01:18:53;;;;;;;4.15;2.90;;;;;;;;;;4995249;28;20378;-72
2022/12/26 01:21:19;;;;;;;3.33;2.88;;;;;;;;;;4995152;28;20036;-72
2022/12/26 01:23:44;;;;;;;4.15;3.08;;;;;;;;;;4995123;28;20022;-73
2022/12/26 01:26:10;;;;;;;3.72;2.50;;;;;;;;;;4995189;28;20037;-73
2022/12/26 01:28:36;;;;;;;3.15;2.83;;;;;;;;;;4994830;28;20051;-72
2022/12/26 01:31:04;;;;;;;3.60;2.65;;;16.40;80.80;;;;;;4995213;28;20081;-72
2022/12/26 01:33:31;;;;;;;2.97;2.67;;;;;;;;;;4995050;28;20034;-72
2022/12/26 01:35:56;;;;;;;2.92;2.47;;;;;;;;;;4994804;28;20046;-72
2022/12/26 01:38:23;;;;;;;3.17;2.60;;;;;;;;;;4994954;28;20031;-72
2022/12/26 01:41:15;;;;;;;3.75;2.67;;;;;;;;;;4995025;28;20085;-72
2022/12/26 01:43:57;;;;;;;5.28;2.95;;;16.50;74.80;;;;;;4994836;28;20065;-73
2022/12/26 01:46:39;;;;;;;2.67;2.40;;;16.40;74.50;;;;;;4994829;28;20030;-73
2022/12/26 01:49:36;;;;;;;2.92;2.42;;;16.50;73.50;;;;;;4994702;28;20076;-73
2022/12/26 01:52:08;;;;;;;3.42;2.85;;;16.50;77.20;;;;;;4988546;28;20488;-73
2022/12/26 01:54:37;;;;;;;2.80;2.47;;;16.40;78.10;;;;;;4994592;28;20037;-73
2022/12/26 01:57:07;;;;;;;3.42;2.95;;;16.40;77.90;;;;;;4994462;28;20121;-73
2022/12/26 01:59:37;;;;;;;3.58;2.40;;;16.50;77.70;;;;;;4994592;28;20030;-73
2022/12/26 02:02:04;;;;;;;3.03;2.35;;;;;;;;;;4994425;28;20077;-73
2022/12/26 02:07:19;;;;;;;3.07;2.27;;;;;;;;;;4994484;28;20097;-73
2022/12/26 02:09:46;;;;;;;2.05;1.80;;;;;;;;;;4994325;28;20289;-73
2022/12/26 02:12:33;;;;;;;2.20;1.92;;;16.40;99.00;;;;;;4994252;28;20034;-73
2022/12/26 02:15:00;;;;;;;2.20;1.90;;;16.40;99.00;;;;;;4994091;28;20023;-73
2022/12/26 02:17:26;;;;;;;2.28;2.08;;;16.40;99.00;;;;;;4994231;28;20036;-73
2022/12/26 02:19:52;;;;;;;2.35;2.03;;;;;;;;;;4994115;28;20101;-72
2022/12/26 02:22:39;;;;;;;2.20;2.00;;;16.40;68.40;;;;;;4994063;28;20385;-73
2022/12/26 02:25:44;;;;;;;2.55;1.95;;;16.60;99.00;;;;;;4994258;28;20034;-72
2022/12/26 02:28:12;;;;;;;2.40;2.20;;;16.50;69.20;;;;;;4993696;28;20065;-72
2022/12/26 02:31:39;;;;;;;3.17;2.30;;;16.30;72.40;;;;;;4993943;28;20448;-72
2022/12/26 02:34:14;;;;;;;2.53;2.25;;;16.40;69.90;;;;;;4914645;29;20031;-72
2022/12/26 02:37:19;;;;;;;2.88;2.58;;;16.40;69.40;;;;;;4898834;29;20480;-72
2022/12/26 02:40:41;;;;;;;2.30;2.10;;;16.30;69.40;;;;;;4977515;28;20080;-73
2022/12/26 02:43:20;;;;;;;2.60;1.90;;;16.30;69.10;;;;;;4963575;28;20496;-73
2022/12/26 02:48:30;;;;;;;3.88;2.05;;;;;;;;;;4993895;28;20129;-73
2022/12/26 03:14:56;;;;;;;1.90;1.80;;;14.70;66.50;;;;;;4993505;28;20037;-73
2022/12/26 03:17:32;;;;;;;2.60;2.40;;;16.40;97.80;;;;;;4992681;28;20029;-73
2022/12/26 03:20:01;;;;;;;2.70;2.50;;;16.30;97.30;;;;;;4993184;28;20449;-73
2022/12/26 03:22:44;;;;;;;2.35;2.00;;;16.20;73.10;;;;;;4993063;28;20041;-73
2022/12/26 03:28:00;;;;;;;3.38;1.60;;;16.40;94.50;;;;;;4992995;28;20532;-73
2022/12/26 03:35:55;;;;;;;2.20;2.00;;;16.30;96.70;;;;;;4992959;28;20045;-73
2022/12/26 03:38:26;;;;;;;2.05;1.85;;;16.30;96.70;;;;;;4992762;28;20477;-73
2022/12/26 04:19:22;;;;;;;2.55;1.50;;;16.40;69.70;;;;;;4993286;28;20443;-73
2022/12/26 04:19:25;;;;;;;1.58;1.35;;;16.30;66.90;;;;;;4992611;28;20144;-73
2022/12/26 04:44:34;;;;;;;1.45;1.30;;;16.20;96.40;;;;;;4995944;28;20045;-72
2022/12/26 04:47:00;;;;;;;2.53;0.93;;;;;;;;;;4995781;28;20102;-73
2022/12/26 04:52:13;;;;;;;1.10;0.95;;;16.30;96.40;;;;;;4995815;28;20049;-72
2022/12/26 04:54:39;;;;;;;1.08;0.98;;;16.20;96.30;;;;;;4995339;28;20026;-72
2022/12/26 04:57:05;;;;;;;2.03;0.90;;;16.20;93.60;;;;;;4995422;28;20511;-72
2022/12/26 04:59:30;;;;;;;1.50;1.00;;;16.20;90.90;;;;;;4995337;28;20038;-72
2022/12/26 05:11:28;;;;;;;1.27;0.68;;;16.30;96.20;;;;;;5015372;28;20567;-72
2022/12/26 05:13:55;;;;;;;2.05;0.60;;;16.10;68.20;;;;;;5015063;28;20377;-73
2022/12/26 05:30:20;;;;;;;1.48;0.85;;;16.10;73.40;;;;;;5015012;28;20064;-72
2022/12/26 05:35:30;;;;;;;1.02;0.50;;;;;;;;;;5014471;28;20041;-69
2022/12/26 05:37:59;;;;;;;1.92;0.70;;;16.00;97.10;;;;;;5014424;28;20080;-71
2022/12/26 05:40:24;;;;;;;0.77;0.60;;;16.00;96.90;;;;;;5013746;28;20018;-72
2022/12/26 05:42:50;;;;;;;1.30;0.50;;;;;;;;;;5014354;28;20056;-72
2022/12/26 05:45:16;;;;;;;1.13;0.68;;;16.10;97.10;;;;;;5014390;28;20109;-72
2022/12/26 05:47:42;;;;;;;1.25;0.70;;;16.10;97.20;;;;;;5014513;28;20483;-72
2022/12/26 05:50:08;;;;;;;1.00;0.85;;;16.30;84.70;;;;;;5014275;28;20106;-72
2022/12/26 05:52:33;;;;;;;1.95;0.77;;;16.10;84.10;;;;;;5014222;28;20022;-72
2022/12/26 05:54:59;;;;;;;1.10;0.70;;;;;;;;;;5014176;28;20045;-70
2022/12/26 05:57:25;;;;;;;0.70;0.60;;;;;;;;;;5014077;28;20384;-70
2022/12/26 05:59:51;;;;;;;1.25;0.70;;;;;;;;;;5013963;28;20088;-70
2022/12/26 06:02:17;;;;;;;1.45;0.63;;;;;;;;;;5006208;28;20053;-70
2022/12/26 06:04:43;;;;;;;0.80;0.60;;;16.00;97.40;;;;;;4994329;28;20026;-70
2022/12/26 06:07:09;;;;;;;1.30;0.80;;;;;;;;;;4994362;28;20133;-70
2022/12/26 06:09:35;;;;;;;1.42;0.77;;;;;;;;;;4994292;28;20034;-70
2022/12/26 06:12:01;;;;;;;1.13;0.60;;;;;;;;;;4994372;28;20101;-70
2022/12/26 06:14:26;;;;;;;0.80;0.55;;;16.10;98.20;;;;;;4994318;28;20041;-69
2022/12/26 06:16:52;;;;;;;2.22;0.85;;;;;;;;;;4994057;28;20133;-70
2022/12/26 06:19:18;;;;;;;0.73;0.60;;;;;;;;;;4993901;28;20105;-70
2022/12/26 06:21:44;;;;;;;1.40;0.43;;;;;;;;;;4993287;28;20057;-70
2022/12/26 06:24:10;;;;;;;0.80;0.50;;;;;;;;;;4993760;28;20023;-70
2022/12/26 06:26:36;;;;;;;0.60;0.50;;;16.20;98.30;;;;;;4993991;28;20029;-70
2022/12/26 06:29:02;;;;;;;0.85;0.60;;;16.10;98.40;;;;;;4993890;28;20023;-70
2022/12/26 06:31:28;;;;;;;0.60;0.50;;;;;;;;;;4993965;28;20097;-72
2022/12/26 06:33:57;;;;;;;1.75;0.90;;;16.10;77.30;;;;;;4993862;28;20022;-73
2022/12/26 06:36:24;;;;;;;1.90;0.70;;;16.20;76.10;;;;;;4993730;28;20034;-72
2022/12/26 06:38:50;;;;;;;0.60;0.60;;;;;;;;;;4993762;28;20057;-72
2022/12/26 06:41:17;;;;;;;0.73;0.60;;;16.20;75.50;;;;;;4993667;28;20101;-72
2022/12/26 06:43:44;;;;;;;0.80;0.52;;;16.20;72.30;;;;;;4993851;28;20014;-72
2022/12/26 06:46:18;;;;;;;0.52;0.52;;;16.20;74.30;;;;;;4993677;28;20056;-72
2022/12/26 06:48:44;;;;;;;1.00;0.52;;;;;;;;;;4993822;28;20046;-72
2022/12/26 06:51:19;;;;;;;0.85;0.40;;;16.20;70.20;;;;;;4992616;28;20140;-70
2022/12/26 06:53:45;;;;;;;1.35;0.63;;;;;;;;;;4993430;28;20027;-70
2022/12/26 06:56:14;;;;;;;1.38;0.60;;;16.20;76.10;;;;;;4993412;28;20049;-70
2022/12/26 06:58:40;;;;;;;1.73;0.60;;;;;;;;;;4993466;28;20037;-69
2022/12/26 07:01:11;;;;;;;0.70;0.40;;;16.20;73.60;;;;;;4993218;28;20464;-70
2022/12/26 07:03:37;;;;;;;1.33;0.65;;;16.10;98.20;;;;;;4993284;28;20042;-69
2022/12/26 07:06:15;;;;;;;1.55;0.50;;;15.90;98.20;;;;;;4993278;28;20369;-69
2022/12/26 07:08:41;;;;;;;2.47;0.70;;;;;;;;;;4993391;28;20373;-72
2022/12/26 07:11:21;;;;;;;0.80;0.40;;;16.20;67.40;;;;;;4993225;28;20113;-74
2022/12/26 07:13:47;;;;;;;1.83;0.50;;;;;;;;;;4993292;28;20026;-72
2022/12/26 07:16:13;;;;;;;0.82;0.50;;;;;;;;;;4993122;28;20073;-73
2022/12/26 07:18:39;;;;;;;1.75;0.50;;;;;;;;;;4993146;28;20444;-72
2022/12/26 07:21:07;;;;;;;2.45;0.77;;;16.20;70.40;;;;;;4992975;28;20041;-72
2022/12/26 07:23:33;;;;;;;1.35;0.40;;;;;;;;;;4993035;28;20026;-72
2022/12/26 07:25:59;;;;;;;1.92;0.60;;;;;;;;;;4993058;28;20034;-70
2022/12/26 07:28:25;;;;;;;2.92;0.65;;;16.00;97.90;;;;;;4993078;28;20033;-70
2022/12/26 07:30:51;;;;;;;1.05;0.57;;;;;;;;;;4992932;28;20053;-69
2022/12/26 07:33:18;;;;;;;1.25;0.50;;;;;;;;;;4992954;28;20481;-69
2022/12/26 07:35:44;;;;;;;1.23;0.50;;;;;;;;;;4992817;28;20069;-70
2022/12/26 07:38:11;;;;;;;1.70;0.60;;;16.00;71.20;;;;;;4992805;28;20030;-69
2022/12/26 07:40:37;;;;;;;0.93;0.50;;;;;;;;;;4992862;28;20381;-69
2022/12/26 07:43:02;;;;;;;0.60;0.40;;;16.20;97.50;;;;;;4992796;28;20022;-69
2022/12/26 07:45:28;;;;;;;2.90;0.35;;;;;;;;;;4992854;28;20030;-70
2022/12/26 07:47:55;;;;;;;2.08;0.65;;;;;;;;;;4975437;28;20493;-70
2022/12/26 07:50:21;;;;;;;1.58;0.60;;;16.20;97.90;;;;;;4992788;28;20081;-70
2022/12/26 07:52:47;;;;;;;1.27;0.40;;;;;;;;;;4992669;28;20019;-70
2022/12/26 07:55:13;;;;;;;1.20;0.70;;;;;;;;;;4992583;28;20040;-69
2022/12/26 08:00:11;;;;;;;2.20;0.45;;;15.80;69.90;;;;;;5030325;28;20049;-83
2022/12/26 08:02:37;;;;;;;3.58;0.60;;;;;;;;;;5040452;28;20029;-81
2022/12/26 08:05:03;;;;;;;0.98;0.60;;;;;;;;;;5034694;28;20040;-84
2022/12/26 08:07:29;;;;;;;9.35;0.68;;;;;;;;;;5036029;28;20031;-83
2022/12/26 08:13:24;;;;;;;2.88;0.52;;;;;;;;;;4964356;28;20045;-81
2022/12/26 08:18:31;;;;;;;4.97;0.90;;;;;;;;;;5032275;28;20049;-83
2022/12/26 08:21:17;;;;;;;1.10;0.63;;;;;;;;;;5036153;28;20383;-81
2022/12/26 08:24:03;;;;;;;1.02;0.60;;;;;;;;;;5035739;28;20037;-83
2022/12/26 08:26:49;;;;;;;1.23;0.52;;;;;;;;;;5035690;28;20028;-85
2022/12/26 08:29:35;;;;;;;1.88;0.70;;;;;;;;;;5035733;28;20088;-83
2022/12/26 08:32:21;;;;;;;1.60;0.50;;;;;;;;;;5035520;28;20026;-82
2022/12/26 08:35:07;;;;;;;4.10;0.70;;;;;;;;;;5035426;28;20095;-84
2022/12/26 08:37:53;;;;;;;1.40;0.60;;;;;;;;;;5035458;28;20021;-81
2022/12/26 08:40:39;;;;;;;3.63;0.90;;;;;;;;;;5035420;28;20399;-82
2022/12/26 08:43:06;;;;;;;3.08;0.90;;;;;;;;;;5035703;28;20026;-82
2022/12/26 08:45:32;;;;;;;1.73;0.85;;;;;;;;;;5034293;28;20075;-83
2022/12/26 08:48:18;;;;;;;5.60;0.82;;;;;;;;;;5035351;28;20076;-82
2022/12/26 08:51:10;;;;;;;0.88;0.50;;;16.20;76.20;;;;;;5035215;28;20025;-79
2022/12/26 08:53:56;;;;;;;3.30;0.90;;;;;;;;;;5035107;28;20450;-79
2022/12/26 08:56:43;;;;;;;0.95;0.60;;;;;;;;;;5034898;28;20045;-79
2022/12/26 08:59:28;;;;;;;1.65;0.68;;;;;;;;;;5035071;28;20087;-79
2022/12/26 09:02:14;;;;;;;1.65;0.75;;;;;;;;;;5034948;28;20029;-79
2022/12/26 09:05:40;;;;;;;2.30;0.65;;;16.20;76.60;;;;;;5034869;28;20056;-79
2022/12/26 09:08:28;;;;;;;3.05;0.90;;;16.20;76.80;;;;;;5034856;28;20049;-79
2022/12/26 09:11:17;;;;;;;2.67;0.73;;;16.20;76.20;;;;;;5034943;28;20037;-82
2022/12/26 09:14:04;;;;;;;2.60;0.80;;;16.10;76.80;;;;;;5033708;28;20117;-92
2022/12/26 09:16:50;;;;;;;2.92;0.90;;;;;;;;;;5034155;28;20041;-81
2022/12/26 09:19:36;;;;;;;4.78;0.80;;;;;;;;;;5034437;28;20039;-83
2022/12/26 09:25:07;;;;;;;1.83;0.90;;;;;;;;;;5035013;28;20083;-82
2022/12/26 09:27:53;;;;;;;1.33;0.73;;;;;;;;;;5034918;28;20041;-83
2022/12/26 09:30:39;;;;;;;6.05;1.05;;;;;;;;;;5034519;28;20032;-83
2022/12/26 09:33:06;;;;;;;1.88;0.88;;;;;;;;;;5017192;28;20033;-88
2022/12/26 09:35:51;;;;;;;2.65;0.90;;;;;;;;;;5034367;28;20128;-86
2022/12/26 09:38:33;;;;;;;2.15;0.65;;;;;;;;;;5035261;28;20373;-84
2022/12/26 09:41:23;;;;;;;2.22;0.80;;;16.20;70.70;;;;;;5017404;28;20476;-83
2022/12/26 09:44:13;;;;;;;2.90;0.90;;;16.20;71.80;;;;;;5034608;28;20021;-85
2022/12/26 09:46:51;;;;;;;2.63;0.80;;;16.20;69.90;;;;;;5016794;28;20415;-79
2022/12/26 09:49:55;;;;;;;1.95;1.00;;;16.20;75.80;;;;;;5033944;28;20083;-80
2022/12/26 09:52:56;;;;;;;2.20;1.00;;;16.20;74.50;;;;;;5033918;28;20021;-79
2022/12/26 09:55:53;;;;;;;2.50;0.80;;;16.20;68.70;;;;;;5034565;28;20060;-79
2022/12/26 09:58:39;;;;;;;3.83;0.80;;;;;;;;;;5038009;28;20392;-80
2022/12/26 10:01:34;;;;;;;3.28;0.70;;;16.20;70.20;;;;;;5033886;28;20471;-82
2022/12/26 10:04:29;;;;;;;2.03;0.70;;;16.20;74.30;;;;;;5034087;28;20025;-85
2022/12/26 10:07:43;;;;;;;1.83;1.02;;;16.00;73.80;;;;;;5034050;28;20029;-88
2022/12/26 10:10:46;;;;;;;1.00;0.57;;;16.30;69.60;;;;;;5034623;28;20032;-88
2022/12/26 10:13:47;;;;;;;2.15;0.75;;;16.20;68.70;;;;;;5034695;28;20041;-88
2022/12/26 10:16:41;;;;;;;;;;;16.30;74.40;;;;;;5034837;28;20107;-92
2022/12/26 10:19:56;;;;;;;3.60;0.70;;;16.30;74.40;;;;;;5034826;28;20392;-89
2022/12/26 10:22:42;;;;;;;1.95;0.60;;;;;;;;;;5008305;28;20553;-90
2022/12/26 10:25:42;;;;;;;3.50;0.70;;;16.20;73.10;;;;;;5034487;28;20434;-89
2022/12/26 10:28:39;;;;;;;5.18;0.82;;;16.20;68.70;;;;;;5016927;28;20044;-86
2022/12/26 10:31:12;;;;;;;1.17;0.82;;;16.20;72.00;;;;;;5032003;28;20120;-86
2022/12/26 10:34:03;;;;;;;2.92;0.65;;;16.10;97.90;;;;;;5033892;28;20017;-88
2022/12/26 10:36:54;;;;;;;1.45;0.73;;;16.20;70.40;;;;;;5034059;28;20432;-83
2022/12/26 10:39:49;;;;;;;;;;;16.10;71.80;;;;;;5034166;28;20091;-85
2022/12/26 10:42:38;;;;;;;1.25;0.50;;;16.10;97.30;;;;;;5034205;28;19996;-87
2022/12/26 10:45:46;;;;;;;1.33;0.50;;;15.90;97.30;;;;;;5033348;28;20029;-84
2022/12/26 10:48:32;;;;;;;2.80;0.60;;;;;;;;;;5033592;28;20036;-86
2022/12/26 10:50:58;;;;;;;1.10;0.60;;;;;;;;;;5015678;28;20369;-82
2022/12/26 10:53:50;;;;;;;2.10;0.75;;;17.60;66.70;;;;;;5033751;28;20479;-87
2022/12/26 10:56:36;;;;;;;2.00;0.50;;;;;;;;;;5033216;28;20044;-83
2022/12/26 10:59:33;;;;;;;2.67;1.00;;;16.10;68.60;;;;;;5033258;28;20033;-83
2022/12/26 11:02:28;;;;;;;0.90;0.65;;;16.20;96.20;;;;;;5033734;28;20033;-86
2022/12/26 11:05:21;;;;;;;3.10;0.63;;;16.40;96.20;;;;;;5034005;28;20037;-87
2022/12/26 11:08:35;;;;;;;2.78;0.73;;;16.10;67.90;;;;;;5034155;28;20507;-87
2022/12/26 11:11:44;;;;;;;3.30;0.50;;;16.10;95.90;;;;;;5034285;28;20586;-88
2022/12/26 11:14:41;;;;;;;3.03;0.60;;;16.00;96.00;;;;;;5033810;28;20048;-87
2022/12/26 11:17:33;;;;;;;1.48;0.50;;;16.10;65.60;;;;;;5033516;28;20100;-82
2022/12/26 11:20:28;;;;;;;1.30;0.63;;;16.20;80.60;;;;;;5032605;28;20033;-79
2022/12/26 11:23:24;;;;;;;1.15;0.40;;;16.20;95.50;;;;;;5032320;28;20061;-80
2022/12/26 11:26:22;;;;;;;4.00;0.98;;;16.10;65.40;;;;;;5032467;28;20029;-80
2022/12/26 11:29:13;;;;;;;1.70;0.65;;;16.20;65.30;;;;;;5032685;28;20032;-80
2022/12/26 11:32:01;;;;;;;3.60;0.70;;;16.30;88.30;;;;;;5032426;28;20029;-80
2022/12/26 11:34:48;;;;;;;4.53;0.45;;;16.30;95.30;;;;;;5032188;28;20105;-80
2022/12/26 11:37:43;;;;;;;1.55;0.65;;;16.40;95.20;;;;;;5032760;28;20037;-87
2022/12/26 11:40:38;;;;;;;0.60;0.40;;;16.00;92.70;;;;;;5033718;28;20052;-88
2022/12/26 11:43:24;;;;;;;2.00;0.55;;;;;;;;;;5033427;28;20040;-87
2022/12/26 11:46:11;;;;;;;3.08;0.80;;;;;;;;;;5033541;28;20031;-84
2022/12/26 11:48:57;;;;;;;1.73;0.70;;;;;;;;;;5033588;28;20034;-89
2022/12/26 11:51:47;;;;;;;1.95;0.50;;;16.60;65.20;;;;;;5033937;28;20095;-89
2022/12/26 11:54:47;;;;;;;0.57;0.40;;;16.50;65.40;;;;;;5033577;28;20152;-88
2022/12/26 11:57:32;;;;;;;1.23;0.40;;;16.90;91.80;;;;;;5034137;28;20029;-89
2022/12/26 12:00:23;;;;;;;1.30;0.77;;;16.40;65.10;;;;;;5033905;28;20036;-89
2022/12/26 12:03:40;;;;;;;1.80;0.68;;;16.70;76.20;;;;;;5033781;28;20029;-89
2022/12/26 12:07:01;;;;;;;1.30;0.70;;;16.80;94.80;;;;;;5027758;28;20052;-89
2022/12/26 12:10:21;;;;;;;1.48;0.50;;;16.80;94.80;;;;;;5034139;28;20053;-88
2022/12/26 12:13:37;;;;;;;1.80;0.40;;;16.60;87.70;;;;;;5033328;28;20025;-89
2022/12/26 12:16:48;;;;;;;1.65;0.65;;;16.40;80.70;;;;;;5032987;28;20052;-88
2022/12/26 12:19:43;;;;;;;1.23;0.50;;;16.50;64.20;;;;;;5033587;28;20495;-89
2022/12/26 12:22:51;;;;;;;1.25;0.40;;;16.30;85.20;;;;;;5033217;28;20391;-88
2022/12/26 12:25:34;;;;;;;1.88;0.65;;;16.20;94.90;;;;;;5014943;28;20112;-88
2022/12/26 12:28:42;;;;;;;2.33;0.57;;;16.50;64.10;;;;;;5015698;28;20052;-88
2022/12/26 12:31:26;;;;;;;1.00;0.55;;;16.60;94.80;;;;;;5016365;28;20028;-80
2022/12/26 12:34:30;;;;;;;2.05;0.60;;;16.60;94.70;;;;;;5032432;28;20025;-80
2022/12/26 12:37:35;;;;;;;1.33;0.68;;;16.30;94.80;;;;;;5031946;28;20087;-80
2022/12/26 12:40:24;;;;;;;0.73;0.35;;;18.80;64.90;;;;;;5014262;28;20079;-80
2022/12/26 12:43:14;;;;;;;1.85;0.50;;;16.40;66.30;;;;;;5021816;28;20038;-80
2022/12/26 12:45:52;;;;;;;1.05;0.40;;;16.50;94.90;;;;;;5014755;28;20392;-80
2022/12/26 12:48:36;;;;;;;4.32;0.60;;;16.70;94.80;;;;;;5015617;28;20494;-81
2022/12/26 12:51:30;;;;;;;1.45;0.50;;;16.70;66.10;;;;;;5037129;28;20025;-88
2022/12/26 12:54:45;;;;;;;3.72;0.80;;;16.60;94.70;;;;;;5037705;28;20041;-88
2022/12/26 12:57:31;;;;;;;2.95;0.60;;;;;;;;;;5034903;28;20084;-83
2022/12/26 13:00:12;;;;;;;1.67;0.50;;;16.40;94.50;;;;;;5035076;28;20033;-84
2022/12/26 13:02:38;;;;;;;5.95;0.70;;;;;;;;;;5035088;28;20039;-84
2022/12/26 13:05:41;;;;;;;2.22;0.40;;;16.30;94.90;;;;;;5035077;28;20458;-84
2022/12/26 13:08:24;;;;;;;2.53;0.75;;;16.30;89.90;;;;;;5034863;28;20094;-84
2022/12/26 13:10:54;;;;;;;3.08;0.60;;;16.30;66.30;;;;;;5034793;28;20029;-84
2022/12/26 13:13:53;;;;;;;3.90;0.52;;;16.30;64.80;;;;;;5034859;28;20155;-84
2022/12/26 13:16:26;;;;;;;3.28;0.50;;;16.30;64.70;;;;;;5034641;28;20508;-84
2022/12/26 13:19:24;;;;;;;3.83;0.73;;;16.30;95.30;;;;;;5034407;28;20080;-85
2022/12/26 13:22:19;;;;;;;2.35;0.60;;;16.30;95.20;;;;;;5034437;28;20063;-85
2022/12/26 13:25:05;;;;;;;2.25;0.50;;;16.50;95.20;;;;;;5034229;28;20037;-85
2022/12/26 13:27:53;;;;;;;2.85;0.40;;;16.40;66.80;;;;;;5034246;28;20033;-86
2022/12/26 13:30:39;;;;;;;1.50;0.50;;;;;;;;;;5034365;28;20116;-85
2022/12/26 13:33:26;;;;;;;2.65;0.45;;;;;;;;;;5034358;28;20080;-86
2022/12/26 13:36:34;;;;;;;1.80;0.40;;;16.30;67.40;;;;;;5034189;28;20075;-86
2022/12/26 13:39:03;;;;;;;3.00;0.50;;;;;;;;;;5034526;28;20387;-84
2022/12/26 13:44:36;;;;;;;5.10;0.60;;;16.30;95.80;;;;;;5040830;28;20040;-86
2022/12/26 13:47:37;;;;;;;2.35;0.60;;;16.60;95.80;;;;;;5033909;28;20036;-85
2022/12/26 13:50:47;;;;;;;3.15;0.60;;;16.60;72.90;;;;;;5034089;28;20041;-82
2022/12/26 13:53:40;;;;;;;2.38;0.50;;;16.80;95.60;;;;;;5034046;28;20116;-82
2022/12/26 13:56:26;;;;;;;1.55;0.85;;;;;;;;;;5034063;28;20021;-83
2022/12/26 14:00:01;;;;;;;1.02;0.45;;;17.10;95.40;;;;;;5033823;28;20021;-83
2022/12/26 14:03:31;;;;;;;1.60;0.50;;;17.10;62.20;;;;;;5033776;28;20061;-84
2022/12/26 14:06:49;;;;;;;2.50;0.50;;;17.20;95.10;;;;;;5033548;28;20033;-82
2022/12/26 14:09:57;;;;;;;1.17;0.40;;;17.20;65.20;;;;;;5033850;28;20025;-83
2022/12/26 14:12:57;;;;;;;2.10;0.50;;;17.30;94.90;;;;;;5033902;28;20026;-82
2022/12/26 14:16:22;;;;;;;1.48;0.55;;;17.20;61.80;;;;;;5033590;28;20468;-82
2022/12/26 14:19:16;;;;;;;2.17;0.60;;;17.10;94.70;;;;;;5003600;28;20053;-81
2022/12/26 14:22:14;;;;;;;1.13;0.40;;;16.80;94.50;;;;;;5033330;28;20025;-81
2022/12/26 14:25:18;;;;;;;1.20;0.50;;;17.00;62.50;;;;;;5033082;28;20030;-83
2022/12/26 14:28:29;;;;;;;2.28;0.60;;;17.00;62.60;;;;;;5033336;28;20061;-83
2022/12/26 14:31:31;;;;;;;4.75;0.60;;;17.00;95.00;;;;;;5033069;28;20500;-82
2022/12/26 14:34:38;;;;;;;0.82;0.30;;;16.70;94.80;;;;;;5033068;28;20119;-83
2022/12/26 14:37:44;;;;;;;0.77;0.45;;;17.00;78.60;;;;;;5032948;28;20348;-82
2022/12/26 14:40:30;;;;;;;1.50;0.60;;;;;;;;;;5032942;28;20037;-83
2022/12/26 14:43:16;;;;;;;1.23;0.57;;;;;;;;;;5037067;28;20032;-82
2022/12/26 14:46:24;;;;;;;0.75;0.35;;;17.30;66.40;;;;;;5033279;28;20049;-83
2022/12/26 14:49:30;;;;;;;1.55;0.50;;;16.80;66.10;;;;;;5033343;28;20029;-82
2022/12/26 14:52:31;;;;;;;1.15;0.40;;;16.60;95.10;;;;;;5030210;28;20594;-82
2022/12/26 14:55:46;;;;;;;2.00;0.40;;;16.60;68.90;;;;;;5033177;28;20036;-83
2022/12/26 14:58:46;;;;;;;0.52;0.43;;;16.70;95.30;;;;;;5033692;28;20048;-82
2022/12/26 15:01:31;;;;;;;0.93;0.50;;;16.80;95.20;;;;;;5033362;28;20044;-82
2022/12/26 15:05:02;;;;;;;1.27;0.50;;;16.60;95.30;;;;;;5033111;28;20441;-83
2022/12/26 15:07:53;;;;;;;;;;;16.60;64.40;;;;;;5023892;28;20369;-82
2022/12/26 15:11:15;;;;;;;1.00;0.30;;;16.40;95.10;;;;;;5033123;28;19905;-83
2022/12/26 15:14:18;;;;;;;0.80;0.43;;;16.50;69.70;;;;;;5033251;28;20108;-84
2022/12/26 15:17:58;;;;;;;2.80;0.70;;;16.20;95.30;;;;;;5033002;28;20037;-83
2022/12/26 15:20:26;;;;;;;1.40;0.30;;;16.50;95.20;;;;;;4953069;29;20035;-84
2022/12/26 15:23:12;;;;;;;1.40;0.52;;;;;;;;;;5033100;28;20029;-83
2022/12/26 15:26:19;;;;;;;10.15;0.80;;;16.60;95.00;;;;;;5033117;28;20071;-83
2022/12/26 15:29:05;;;;;;;5.70;0.93;;;;;;;;;;5032745;28;20399;-84
2022/12/26 15:32:36;;;;;;;3.70;0.73;;;16.40;80.20;;;;;;5032539;28;20114;-83
2022/12/26 15:35:59;;;;;;;2.90;0.80;;;16.40;63.20;;;;;;4951835;29;20424;-83
2022/12/26 15:38:40;;;;;;;3.53;0.60;;;16.50;95.20;;;;;;5032523;28;20497;-83
2022/12/26 15:41:34;;;;;;;;;;;16.30;63.90;;;;;;5032854;28;20476;-83
2022/12/26 15:45:01;;;;;;;3.05;0.90;;;16.40;63.20;;;;;;5032679;28;19911;-83
2022/12/26 15:47:54;;;;;;;4.45;0.88;;;16.20;95.00;;;;;;4961626;28;20047;-83
2022/12/26 15:51:00;;;;;;;3.42;1.23;;;15.90;66.50;;;;;;5032576;28;20053;-80
2022/12/26 16:07:22;;;;;;;2.10;0.77;;;16.20;94.70;;;;;;4992744;28;20085;-74
2022/12/26 16:09:51;;;;;;;2.65;0.98;;;16.90;66.50;;;;;;4992678;28;20088;-75
2022/12/26 16:12:29;;;;;;;3.30;0.65;;;16.00;94.40;;;;;;4992649;28;20026;-68
2022/12/26 16:15:08;;;;;;;5.60;1.38;;;16.20;95.10;;;;;;4992542;28;20408;-70
2022/12/26 16:17:35;;;;;;;7.38;1.63;;;16.20;65.90;;;;;;4992586;28;20065;-69
2022/12/26 16:22:42;;;;;;;3.88;1.25;;;16.00;95.10;;;;;;4992348;28;20084;-68
2022/12/26 16:23:03;;;;;;;6.43;1.02;;;16.20;95.30;;;;;;4992939;28;20516;-69
2022/12/26 16:25:29;;;;;;;2.35;1.10;;;16.20;95.50;;;;;;4996196;28;20060;-69
2022/12/26 16:27:58;;;;;;;3.03;0.85;;;16.20;67.80;;;;;;4996146;28;20084;-70
2022/12/26 16:30:31;;;;;;;4.30;1.55;;;16.10;67.60;;;;;;4996510;28;20034;-69
2022/12/26 16:32:59;;;;;;;7.03;1.00;;;;;;;;;;4994851;28;20112;-70
2022/12/26 16:35:33;;;;;;;5.07;1.20;;;15.80;95.60;;;;;;4996374;28;20421;-71
2022/12/26 16:38:01;;;;;;;2.88;1.50;;;16.10;67.50;;;;;;4996271;28;20025;-70
2022/12/26 16:40:44;;;;;;;3.63;1.23;;;16.00;95.70;;;;;;4996301;28;20413;-70
2022/12/26 16:43:13;;;;;;;4.10;1.25;;;16.10;61.80;;;;;;4995939;28;20037;-70
2022/12/26 16:45:39;;;;;;;5.18;1.42;;;16.10;67.80;;;;;;4996116;28;20089;-70
2022/12/26 16:48:08;;;;;;;4.43;1.27;;;16.10;67.60;;;;;;4994444;28;20029;-70
2022/12/26 16:50:42;;;;;;;3.22;1.17;;;16.00;67.20;;;;;;4996099;28;20026;-69
2022/12/26 16:53:17;;;;;;;2.80;1.30;;;16.10;95.70;;;;;;4995748;28;20025;-69
2022/12/26 16:55:50;;;;;;;2.55;1.20;;;16.00;66.90;;;;;;4995548;28;20054;-69
2022/12/26 16:58:29;;;;;;;3.28;1.55;;;15.90;72.40;;;;;;4995520;28;20030;-69
2022/12/26 17:01:06;;;;;;;2.80;1.20;;;16.00;95.60;;;;;;4995620;28;20022;-68
2022/12/26 17:03:54;;;;;;;4.10;1.27;;;15.80;95.00;;;;;;4995581;28;20035;-69
2022/12/26 17:06:34;;;;;;;5.35;1.40;;;15.70;60.80;;;;;;4995507;28;20041;-69
2022/12/26 17:09:08;;;;;;;3.42;1.20;;;16.00;95.20;;;;;;4995507;28;20113;-69
2022/12/26 17:11:37;;;;;;;3.42;1.30;;;15.80;66.30;;;;;;4995420;28;20438;-69
2022/12/26 17:14:07;;;;;;;5.18;1.13;;;16.00;95.40;;;;;;4995366;28;20445;-69
2022/12/26 17:16:34;;;;;;;3.22;1.15;;;16.00;66.60;;;;;;4995852;28;20026;-69
2022/12/26 17:19:17;;;;;;;3.47;1.60;;;15.80;61.30;;;;;;4995319;28;20042;-69